sensor_id;sensor_type;location;lat;lon;timestamp;P1;durP1;ratioP1;P2;durP2;ratioP2
60975;SDS011;46849;48.154;17.042;2022-08-01T00:01:53;2.33;;;1.58;;
60975;SDS011;46849;48.154;17.042;2022-08-01T00:04:38;4.72;;;1.58;;
60975;SDS011;46849;48.154;17.042;2022-08-01T00:07:22;2.35;;;1.75;;
60975;SDS011;46849;48.154;17.042;2022-08-01T00:10:08;1.65;;;1.50;;
60975;SDS011;46849;48.154;17.042;2022-08-01T00:12:56;4.22;;;1.95;;
60975;SDS011;46849;48.154;17.042;2022-08-01T00:15:40;2.38;;;1.67;;
60975;SDS011;46849;48.154;17.042;2022-08-01T00:18:25;2.20;;;1.65;;
60975;SDS011;46849;48.154;17.042;2022-08-01T00:21:09;1.55;;;1.45;;
60975;SDS011;46849;48.154;17.042;2022-08-01T00:23:54;2.00;;;1.58;;
60975;SDS011;46849;48.154;17.042;2022-08-01T00:26:39;2.47;;;1.65;;
60975;SDS011;46849;48.154;17.042;2022-08-01T00:29:23;2.08;;;1.60;;
60975;SDS011;46849;48.154;17.042;2022-08-01T00:32:08;2.58;;;1.63;;
60975;SDS011;46849;48.154;17.042;2022-08-01T00:34:52;3.08;;;1.50;;
60975;SDS011;46849;48.154;17.042;2022-08-01T00:37:37;2.63;;;1.55;;
60975;SDS011;46849;48.154;17.042;2022-08-01T00:40:22;4.20;;;2.00;;
60975;SDS011;46849;48.154;17.042;2022-08-01T00:43:06;2.65;;;1.70;;
60975;SDS011;46849;48.154;17.042;2022-08-01T00:45:51;2.03;;;1.70;;
60975;SDS011;46849;48.154;17.042;2022-08-01T00:48:36;3.42;;;1.95;;
60975;SDS011;46849;48.154;17.042;2022-08-01T00:51:21;2.95;;;1.83;;
60975;SDS011;46849;48.154;17.042;2022-08-01T00:54:06;2.08;;;1.55;;
60975;SDS011;46849;48.154;17.042;2022-08-01T00:56:51;2.20;;;1.75;;
60975;SDS011;46849;48.154;17.042;2022-08-01T00:59:37;3.38;;;1.90;;
60975;SDS011;46849;48.154;17.042;2022-08-01T01:02:23;3.35;;;1.80;;
60975;SDS011;46849;48.154;17.042;2022-08-01T01:05:08;2.72;;;2.22;;
60975;SDS011;46849;48.154;17.042;2022-08-01T01:07:57;2.25;;;2.05;;
60975;SDS011;46849;48.154;17.042;2022-08-01T01:10:47;3.25;;;2.17;;
60975;SDS011;46849;48.154;17.042;2022-08-01T01:13:44;2.88;;;1.70;;
60975;SDS011;46849;48.154;17.042;2022-08-01T01:16:32;3.50;;;1.73;;
60975;SDS011;46849;48.154;17.042;2022-08-01T01:19:20;3.50;;;1.77;;
60975;SDS011;46849;48.154;17.042;2022-08-01T01:22:25;2.88;;;1.90;;
60975;SDS011;46849;48.154;17.042;2022-08-01T01:29:00;2.40;;;1.90;;
60975;SDS011;46849;48.154;17.042;2022-08-01T01:32:39;3.53;;;2.00;;
60975;SDS011;46849;48.154;17.042;2022-08-01T01:35:24;3.78;;;2.03;;
60975;SDS011;46849;48.154;17.042;2022-08-01T01:38:17;3.92;;;2.28;;
60975;SDS011;46849;48.154;17.042;2022-08-01T01:41:04;4.95;;;2.28;;
60975;SDS011;46849;48.154;17.042;2022-08-01T01:43:50;4.28;;;1.98;;
60975;SDS011;46849;48.154;17.042;2022-08-01T01:46:36;2.92;;;1.90;;
60975;SDS011;46849;48.154;17.042;2022-08-01T01:49:23;2.75;;;1.90;;
60975;SDS011;46849;48.154;17.042;2022-08-01T01:52:10;2.63;;;1.98;;
60975;SDS011;46849;48.154;17.042;2022-08-01T01:54:57;3.63;;;1.75;;
60975;SDS011;46849;48.154;17.042;2022-08-01T01:57:45;3.50;;;2.38;;
60975;SDS011;46849;48.154;17.042;2022-08-01T02:00:30;2.50;;;2.10;;
60975;SDS011;46849;48.154;17.042;2022-08-01T02:03:17;1.98;;;1.80;;
60975;SDS011;46849;48.154;17.042;2022-08-01T02:06:03;2.17;;;1.60;;
60975;SDS011;46849;48.154;17.042;2022-08-01T02:08:49;2.33;;;1.98;;
60975;SDS011;46849;48.154;17.042;2022-08-01T02:11:36;2.45;;;1.90;;
60975;SDS011;46849;48.154;17.042;2022-08-01T02:14:23;4.35;;;2.22;;
60975;SDS011;46849;48.154;17.042;2022-08-01T02:17:11;3.10;;;2.30;;
60975;SDS011;46849;48.154;17.042;2022-08-01T02:19:59;3.58;;;2.17;;
60975;SDS011;46849;48.154;17.042;2022-08-01T02:22:55;3.30;;;2.35;;
60975;SDS011;46849;48.154;17.042;2022-08-01T02:25:46;3.65;;;2.35;;
60975;SDS011;46849;48.154;17.042;2022-08-01T02:28:35;2.25;;;1.85;;
60975;SDS011;46849;48.154;17.042;2022-08-01T02:31:25;3.38;;;1.80;;
60975;SDS011;46849;48.154;17.042;2022-08-01T02:34:11;2.80;;;2.13;;
60975;SDS011;46849;48.154;17.042;2022-08-01T02:37:00;2.95;;;2.20;;
60975;SDS011;46849;48.154;17.042;2022-08-01T02:39:46;2.72;;;2.08;;
60975;SDS011;46849;48.154;17.042;2022-08-01T02:42:34;3.03;;;2.10;;
60975;SDS011;46849;48.154;17.042;2022-08-01T02:45:22;2.83;;;1.98;;
60975;SDS011;46849;48.154;17.042;2022-08-01T02:48:10;3.75;;;2.15;;
60975;SDS011;46849;48.154;17.042;2022-08-01T02:50:58;3.35;;;1.80;;
60975;SDS011;46849;48.154;17.042;2022-08-01T02:53:45;2.80;;;2.08;;
60975;SDS011;46849;48.154;17.042;2022-08-01T02:56:32;2.05;;;1.70;;
60975;SDS011;46849;48.154;17.042;2022-08-01T02:59:20;3.25;;;2.25;;
60975;SDS011;46849;48.154;17.042;2022-08-01T03:02:10;2.15;;;1.95;;
60975;SDS011;46849;48.154;17.042;2022-08-01T03:04:57;2.92;;;2.17;;
60975;SDS011;46849;48.154;17.042;2022-08-01T03:07:43;3.85;;;2.00;;
60975;SDS011;46849;48.154;17.042;2022-08-01T03:10:29;3.35;;;2.42;;
60975;SDS011;46849;48.154;17.042;2022-08-01T03:13:15;5.20;;;2.15;;
60975;SDS011;46849;48.154;17.042;2022-08-01T03:16:02;3.13;;;2.20;;
60975;SDS011;46849;48.154;17.042;2022-08-01T03:18:50;2.78;;;2.03;;
60975;SDS011;46849;48.154;17.042;2022-08-01T03:21:37;3.10;;;2.30;;
60975;SDS011;46849;48.154;17.042;2022-08-01T03:24:23;4.03;;;2.28;;
60975;SDS011;46849;48.154;17.042;2022-08-01T03:27:10;3.75;;;2.10;;
60975;SDS011;46849;48.154;17.042;2022-08-01T03:29:56;4.07;;;1.95;;
60975;SDS011;46849;48.154;17.042;2022-08-01T03:32:42;3.17;;;2.05;;
60975;SDS011;46849;48.154;17.042;2022-08-01T03:35:30;2.70;;;2.08;;
60975;SDS011;46849;48.154;17.042;2022-08-01T03:38:18;2.95;;;2.20;;
60975;SDS011;46849;48.154;17.042;2022-08-01T03:41:08;3.13;;;2.00;;
60975;SDS011;46849;48.154;17.042;2022-08-01T03:44:25;3.15;;;2.08;;
60975;SDS011;46849;48.154;17.042;2022-08-01T03:47:13;3.58;;;2.30;;
60975;SDS011;46849;48.154;17.042;2022-08-01T03:50:04;3.20;;;2.00;;
60975;SDS011;46849;48.154;17.042;2022-08-01T03:52:54;3.88;;;2.22;;
60975;SDS011;46849;48.154;17.042;2022-08-01T03:55:43;4.70;;;2.28;;
60975;SDS011;46849;48.154;17.042;2022-08-01T03:58:28;4.15;;;2.17;;
60975;SDS011;46849;48.154;17.042;2022-08-01T04:01:14;3.58;;;2.05;;
60975;SDS011;46849;48.154;17.042;2022-08-01T04:04:00;3.20;;;2.10;;
60975;SDS011;46849;48.154;17.042;2022-08-01T04:06:45;3.00;;;2.22;;
60975;SDS011;46849;48.154;17.042;2022-08-01T04:09:30;5.15;;;2.25;;
60975;SDS011;46849;48.154;17.042;2022-08-01T04:12:15;3.80;;;2.17;;
60975;SDS011;46849;48.154;17.042;2022-08-01T04:15:00;3.60;;;2.22;;
60975;SDS011;46849;48.154;17.042;2022-08-01T04:17:44;2.92;;;2.05;;
60975;SDS011;46849;48.154;17.042;2022-08-01T04:20:29;5.00;;;1.90;;
60975;SDS011;46849;48.154;17.042;2022-08-01T04:23:17;3.80;;;2.17;;
60975;SDS011;46849;48.154;17.042;2022-08-01T04:28:51;3.05;;;2.28;;
60975;SDS011;46849;48.154;17.042;2022-08-01T04:31:39;2.30;;;2.10;;
60975;SDS011;46849;48.154;17.042;2022-08-01T04:34:28;3.97;;;2.28;;
60975;SDS011;46849;48.154;17.042;2022-08-01T04:37:16;3.30;;;2.30;;
60975;SDS011;46849;48.154;17.042;2022-08-01T04:40:03;5.75;;;2.40;;
60975;SDS011;46849;48.154;17.042;2022-08-01T04:42:50;2.92;;;2.40;;
60975;SDS011;46849;48.154;17.042;2022-08-01T04:45:35;2.50;;;2.08;;
60975;SDS011;46849;48.154;17.042;2022-08-01T04:48:20;2.60;;;2.20;;
60975;SDS011;46849;48.154;17.042;2022-08-01T04:51:15;2.75;;;2.15;;
60975;SDS011;46849;48.154;17.042;2022-08-01T04:54:01;2.97;;;2.35;;
60975;SDS011;46849;48.154;17.042;2022-08-01T04:56:45;3.38;;;2.42;;
60975;SDS011;46849;48.154;17.042;2022-08-01T04:59:30;3.80;;;2.15;;
60975;SDS011;46849;48.154;17.042;2022-08-01T05:02:25;3.08;;;2.70;;
60975;SDS011;46849;48.154;17.042;2022-08-01T05:05:12;2.65;;;2.13;;
60975;SDS011;46849;48.154;17.042;2022-08-01T05:07:57;3.10;;;2.15;;
60975;SDS011;46849;48.154;17.042;2022-08-01T05:10:41;4.05;;;2.72;;
60975;SDS011;46849;48.154;17.042;2022-08-01T05:13:26;2.88;;;2.30;;
60975;SDS011;46849;48.154;17.042;2022-08-01T05:16:10;2.50;;;2.05;;
60975;SDS011;46849;48.154;17.042;2022-08-01T05:18:55;4.13;;;2.13;;
60975;SDS011;46849;48.154;17.042;2022-08-01T05:21:39;3.78;;;2.10;;
60975;SDS011;46849;48.154;17.042;2022-08-01T05:24:24;3.50;;;2.22;;
60975;SDS011;46849;48.154;17.042;2022-08-01T05:27:09;3.22;;;2.20;;
60975;SDS011;46849;48.154;17.042;2022-08-01T05:29:54;2.55;;;2.13;;
60975;SDS011;46849;48.154;17.042;2022-08-01T05:32:38;3.35;;;2.20;;
60975;SDS011;46849;48.154;17.042;2022-08-01T05:35:23;3.20;;;2.33;;
60975;SDS011;46849;48.154;17.042;2022-08-01T05:38:08;2.40;;;2.08;;
60975;SDS011;46849;48.154;17.042;2022-08-01T05:40:52;3.67;;;2.03;;
60975;SDS011;46849;48.154;17.042;2022-08-01T05:43:37;2.78;;;2.13;;
60975;SDS011;46849;48.154;17.042;2022-08-01T05:46:22;3.15;;;2.15;;
60975;SDS011;46849;48.154;17.042;2022-08-01T05:49:07;4.55;;;2.72;;
60975;SDS011;46849;48.154;17.042;2022-08-01T05:51:51;3.30;;;2.40;;
60975;SDS011;46849;48.154;17.042;2022-08-01T05:54:36;3.08;;;2.45;;
60975;SDS011;46849;48.154;17.042;2022-08-01T05:57:21;4.72;;;2.50;;
60975;SDS011;46849;48.154;17.042;2022-08-01T06:00:06;3.75;;;2.47;;
60975;SDS011;46849;48.154;17.042;2022-08-01T06:02:56;4.22;;;2.50;;
60975;SDS011;46849;48.154;17.042;2022-08-01T06:05:41;6.05;;;2.65;;
60975;SDS011;46849;48.154;17.042;2022-08-01T06:08:25;4.90;;;2.60;;
60975;SDS011;46849;48.154;17.042;2022-08-01T06:11:10;3.08;;;2.15;;
60975;SDS011;46849;48.154;17.042;2022-08-01T06:13:55;3.75;;;2.08;;
60975;SDS011;46849;48.154;17.042;2022-08-01T06:16:39;4.18;;;2.15;;
60975;SDS011;46849;48.154;17.042;2022-08-01T06:19:24;3.30;;;1.92;;
60975;SDS011;46849;48.154;17.042;2022-08-01T06:22:11;3.67;;;2.08;;
60975;SDS011;46849;48.154;17.042;2022-08-01T06:24:56;5.88;;;2.20;;
60975;SDS011;46849;48.154;17.042;2022-08-01T06:27:40;2.30;;;2.10;;
60975;SDS011;46849;48.154;17.042;2022-08-01T06:30:25;3.03;;;2.17;;
60975;SDS011;46849;48.154;17.042;2022-08-01T06:33:10;3.17;;;2.13;;
60975;SDS011;46849;48.154;17.042;2022-08-01T06:35:55;3.63;;;2.42;;
60975;SDS011;46849;48.154;17.042;2022-08-01T06:38:40;2.80;;;2.15;;
60975;SDS011;46849;48.154;17.042;2022-08-01T06:41:25;4.38;;;2.35;;
60975;SDS011;46849;48.154;17.042;2022-08-01T06:44:09;5.30;;;2.35;;
60975;SDS011;46849;48.154;17.042;2022-08-01T06:46:54;3.58;;;2.20;;
60975;SDS011;46849;48.154;17.042;2022-08-01T06:49:39;2.58;;;2.20;;
60975;SDS011;46849;48.154;17.042;2022-08-01T06:52:24;3.65;;;2.03;;
60975;SDS011;46849;48.154;17.042;2022-08-01T06:55:09;3.15;;;2.45;;
60975;SDS011;46849;48.154;17.042;2022-08-01T06:57:54;4.38;;;2.15;;
60975;SDS011;46849;48.154;17.042;2022-08-01T07:00:38;4.00;;;2.17;;
60975;SDS011;46849;48.154;17.042;2022-08-01T07:03:23;4.07;;;2.30;;
60975;SDS011;46849;48.154;17.042;2022-08-01T07:06:08;3.83;;;2.35;;
60975;SDS011;46849;48.154;17.042;2022-08-01T07:08:54;2.78;;;2.03;;
60975;SDS011;46849;48.154;17.042;2022-08-01T07:11:39;3.22;;;2.20;;
60975;SDS011;46849;48.154;17.042;2022-08-01T07:14:24;4.47;;;2.13;;
60975;SDS011;46849;48.154;17.042;2022-08-01T07:17:09;3.63;;;2.58;;
60975;SDS011;46849;48.154;17.042;2022-08-01T07:19:53;3.42;;;2.17;;
60975;SDS011;46849;48.154;17.042;2022-08-01T07:22:38;5.25;;;2.55;;
60975;SDS011;46849;48.154;17.042;2022-08-01T07:25:23;3.40;;;2.10;;
60975;SDS011;46849;48.154;17.042;2022-08-01T07:28:08;4.35;;;2.30;;
60975;SDS011;46849;48.154;17.042;2022-08-01T07:30:52;3.88;;;2.20;;
60975;SDS011;46849;48.154;17.042;2022-08-01T07:33:37;3.35;;;2.63;;
60975;SDS011;46849;48.154;17.042;2022-08-01T07:36:22;3.90;;;1.95;;
60975;SDS011;46849;48.154;17.042;2022-08-01T07:39:07;2.75;;;2.30;;
60975;SDS011;46849;48.154;17.042;2022-08-01T07:41:51;5.00;;;2.33;;
60975;SDS011;46849;48.154;17.042;2022-08-01T07:44:36;3.17;;;2.35;;
60975;SDS011;46849;48.154;17.042;2022-08-01T07:47:24;2.25;;;1.90;;
60975;SDS011;46849;48.154;17.042;2022-08-01T07:50:09;6.13;;;2.17;;
60975;SDS011;46849;48.154;17.042;2022-08-01T07:52:56;4.07;;;2.30;;
60975;SDS011;46849;48.154;17.042;2022-08-01T07:55:41;4.63;;;2.20;;
60975;SDS011;46849;48.154;17.042;2022-08-01T07:58:27;5.03;;;2.60;;
60975;SDS011;46849;48.154;17.042;2022-08-01T08:01:12;4.15;;;2.38;;
60975;SDS011;46849;48.154;17.042;2022-08-01T08:03:57;3.17;;;2.28;;
60975;SDS011;46849;48.154;17.042;2022-08-01T08:06:41;2.70;;;2.03;;
60975;SDS011;46849;48.154;17.042;2022-08-01T08:09:27;4.03;;;1.98;;
60975;SDS011;46849;48.154;17.042;2022-08-01T08:12:11;2.88;;;2.15;;
60975;SDS011;46849;48.154;17.042;2022-08-01T08:14:56;2.30;;;2.00;;
60975;SDS011;46849;48.154;17.042;2022-08-01T08:17:43;4.93;;;2.30;;
60975;SDS011;46849;48.154;17.042;2022-08-01T08:20:28;4.57;;;2.47;;
60975;SDS011;46849;48.154;17.042;2022-08-01T08:23:13;5.88;;;2.33;;
60975;SDS011;46849;48.154;17.042;2022-08-01T08:26:16;5.53;;;2.30;;
60975;SDS011;46849;48.154;17.042;2022-08-01T08:29:01;5.07;;;2.53;;
60975;SDS011;46849;48.154;17.042;2022-08-01T08:31:48;3.67;;;2.40;;
60975;SDS011;46849;48.154;17.042;2022-08-01T08:34:35;2.45;;;2.25;;
60975;SDS011;46849;48.154;17.042;2022-08-01T08:37:20;2.80;;;2.10;;
60975;SDS011;46849;48.154;17.042;2022-08-01T08:40:05;4.35;;;2.40;;
60975;SDS011;46849;48.154;17.042;2022-08-01T08:42:50;2.70;;;2.20;;
60975;SDS011;46849;48.154;17.042;2022-08-01T08:45:36;5.45;;;2.50;;
60975;SDS011;46849;48.154;17.042;2022-08-01T08:48:21;4.82;;;2.80;;
60975;SDS011;46849;48.154;17.042;2022-08-01T08:51:07;3.83;;;2.40;;
60975;SDS011;46849;48.154;17.042;2022-08-01T08:53:56;3.00;;;2.38;;
60975;SDS011;46849;48.154;17.042;2022-08-01T08:56:41;2.58;;;2.38;;
60975;SDS011;46849;48.154;17.042;2022-08-01T08:59:27;3.20;;;2.78;;
60975;SDS011;46849;48.154;17.042;2022-08-01T09:02:12;3.47;;;2.70;;
60975;SDS011;46849;48.154;17.042;2022-08-01T09:04:57;5.63;;;2.47;;
60975;SDS011;46849;48.154;17.042;2022-08-01T09:07:42;5.40;;;2.80;;
60975;SDS011;46849;48.154;17.042;2022-08-01T09:10:27;3.42;;;2.45;;
60975;SDS011;46849;48.154;17.042;2022-08-01T09:13:13;3.55;;;2.55;;
60975;SDS011;46849;48.154;17.042;2022-08-01T09:15:58;3.15;;;2.40;;
60975;SDS011;46849;48.154;17.042;2022-08-01T09:18:43;4.32;;;2.20;;
60975;SDS011;46849;48.154;17.042;2022-08-01T09:21:28;2.60;;;2.40;;
60975;SDS011;46849;48.154;17.042;2022-08-01T09:24:14;2.88;;;2.35;;
60975;SDS011;46849;48.154;17.042;2022-08-01T09:26:59;2.40;;;1.90;;
60975;SDS011;46849;48.154;17.042;2022-08-01T09:29:45;3.33;;;2.30;;
60975;SDS011;46849;48.154;17.042;2022-08-01T09:32:29;3.88;;;2.22;;
60975;SDS011;46849;48.154;17.042;2022-08-01T09:41:05;3.03;;;2.30;;
60975;SDS011;46849;48.154;17.042;2022-08-01T09:43:51;5.60;;;2.58;;
60975;SDS011;46849;48.154;17.042;2022-08-01T09:46:36;3.30;;;2.17;;
60975;SDS011;46849;48.154;17.042;2022-08-01T09:49:31;3.22;;;2.53;;
60975;SDS011;46849;48.154;17.042;2022-08-01T09:52:20;7.43;;;2.60;;
60975;SDS011;46849;48.154;17.042;2022-08-01T09:55:05;2.45;;;2.03;;
60975;SDS011;46849;48.154;17.042;2022-08-01T09:57:55;2.60;;;2.13;;
60975;SDS011;46849;48.154;17.042;2022-08-01T10:00:42;2.42;;;2.05;;
60975;SDS011;46849;48.154;17.042;2022-08-01T10:03:26;3.20;;;2.38;;
60975;SDS011;46849;48.154;17.042;2022-08-01T10:06:20;2.35;;;2.00;;
60975;SDS011;46849;48.154;17.042;2022-08-01T10:09:06;6.72;;;2.08;;
60975;SDS011;46849;48.154;17.042;2022-08-01T10:11:50;2.58;;;1.77;;
60975;SDS011;46849;48.154;17.042;2022-08-01T10:14:35;3.90;;;1.60;;
60975;SDS011;46849;48.154;17.042;2022-08-01T10:17:20;4.22;;;2.10;;
60975;SDS011;46849;48.154;17.042;2022-08-01T10:20:08;3.28;;;1.95;;
60975;SDS011;46849;48.154;17.042;2022-08-01T10:22:54;3.65;;;1.75;;
60975;SDS011;46849;48.154;17.042;2022-08-01T10:25:40;3.33;;;1.90;;
60975;SDS011;46849;48.154;17.042;2022-08-01T10:28:27;3.60;;;2.03;;
60975;SDS011;46849;48.154;17.042;2022-08-01T10:31:16;2.00;;;1.67;;
60975;SDS011;46849;48.154;17.042;2022-08-01T10:34:01;3.17;;;2.05;;
60975;SDS011;46849;48.154;17.042;2022-08-01T10:36:47;5.00;;;2.15;;
60975;SDS011;46849;48.154;17.042;2022-08-01T10:39:33;4.43;;;2.00;;
60975;SDS011;46849;48.154;17.042;2022-08-01T10:42:18;5.50;;;1.90;;
60975;SDS011;46849;48.154;17.042;2022-08-01T10:45:02;2.72;;;1.58;;
60975;SDS011;46849;48.154;17.042;2022-08-01T10:47:51;3.15;;;1.60;;
60975;SDS011;46849;48.154;17.042;2022-08-01T10:50:46;4.75;;;1.80;;
60975;SDS011;46849;48.154;17.042;2022-08-01T10:53:36;3.38;;;1.48;;
60975;SDS011;46849;48.154;17.042;2022-08-01T10:56:40;3.47;;;1.77;;
60975;SDS011;46849;48.154;17.042;2022-08-01T10:59:29;2.15;;;1.60;;
60975;SDS011;46849;48.154;17.042;2022-08-01T11:02:19;5.95;;;2.63;;
60975;SDS011;46849;48.154;17.042;2022-08-01T11:05:12;3.42;;;1.88;;
60975;SDS011;46849;48.154;17.042;2022-08-01T11:08:21;1.92;;;1.30;;
60975;SDS011;46849;48.154;17.042;2022-08-01T11:11:07;2.55;;;1.65;;
60975;SDS011;46849;48.154;17.042;2022-08-01T11:16:43;3.80;;;1.83;;
60975;SDS011;46849;48.154;17.042;2022-08-01T11:19:38;4.00;;;1.60;;
60975;SDS011;46849;48.154;17.042;2022-08-01T11:28:33;3.67;;;1.63;;
60975;SDS011;46849;48.154;17.042;2022-08-01T11:34:02;1.80;;;1.40;;
60975;SDS011;46849;48.154;17.042;2022-08-01T11:36:47;3.80;;;1.70;;
60975;SDS011;46849;48.154;17.042;2022-08-01T11:39:32;3.53;;;1.83;;
60975;SDS011;46849;48.154;17.042;2022-08-01T11:42:17;3.90;;;1.67;;
60975;SDS011;46849;48.154;17.042;2022-08-01T11:45:03;2.33;;;1.55;;
60975;SDS011;46849;48.154;17.042;2022-08-01T11:47:48;2.55;;;1.40;;
60975;SDS011;46849;48.154;17.042;2022-08-01T11:50:34;4.20;;;1.60;;
60975;SDS011;46849;48.154;17.042;2022-08-01T11:53:20;2.70;;;1.63;;
60975;SDS011;46849;48.154;17.042;2022-08-01T11:56:06;3.13;;;1.48;;
60975;SDS011;46849;48.154;17.042;2022-08-01T11:58:58;3.78;;;1.95;;
60975;SDS011;46849;48.154;17.042;2022-08-01T12:01:43;4.47;;;1.50;;
60975;SDS011;46849;48.154;17.042;2022-08-01T12:04:43;9.55;;;1.60;;
60975;SDS011;46849;48.154;17.042;2022-08-01T12:07:30;4.85;;;1.50;;
60975;SDS011;46849;48.154;17.042;2022-08-01T12:10:17;2.10;;;1.85;;
60975;SDS011;46849;48.154;17.042;2022-08-01T12:13:05;4.78;;;1.55;;
60975;SDS011;46849;48.154;17.042;2022-08-01T12:15:50;6.18;;;1.63;;
60975;SDS011;46849;48.154;17.042;2022-08-01T12:18:39;3.60;;;1.90;;
60975;SDS011;46849;48.154;17.042;2022-08-01T12:21:25;3.93;;;1.50;;
60975;SDS011;46849;48.154;17.042;2022-08-01T12:24:09;2.55;;;1.55;;
60975;SDS011;46849;48.154;17.042;2022-08-01T12:26:54;3.47;;;1.75;;
60975;SDS011;46849;48.154;17.042;2022-08-01T12:29:40;2.08;;;1.60;;
60975;SDS011;46849;48.154;17.042;2022-08-01T12:32:32;4.90;;;1.60;;
60975;SDS011;46849;48.154;17.042;2022-08-01T12:35:21;2.85;;;1.98;;
60975;SDS011;46849;48.154;17.042;2022-08-01T12:38:18;3.45;;;1.60;;
60975;SDS011;46849;48.154;17.042;2022-08-01T12:41:09;3.70;;;1.63;;
60975;SDS011;46849;48.154;17.042;2022-08-01T12:43:54;2.97;;;1.55;;
60975;SDS011;46849;48.154;17.042;2022-08-01T12:46:39;4.22;;;1.60;;
60975;SDS011;46849;48.154;17.042;2022-08-01T12:49:24;1.77;;;1.30;;
60975;SDS011;46849;48.154;17.042;2022-08-01T12:52:10;2.65;;;1.92;;
60975;SDS011;46849;48.154;17.042;2022-08-01T12:58:02;4.30;;;1.45;;
60975;SDS011;46849;48.154;17.042;2022-08-01T13:01:01;1.77;;;1.48;;
60975;SDS011;46849;48.154;17.042;2022-08-01T13:03:59;3.40;;;1.38;;
60975;SDS011;46849;48.154;17.042;2022-08-01T13:06:45;1.83;;;1.38;;
60975;SDS011;46849;48.154;17.042;2022-08-01T13:09:30;2.30;;;1.40;;
60975;SDS011;46849;48.154;17.042;2022-08-01T13:12:16;1.63;;;1.27;;
60975;SDS011;46849;48.154;17.042;2022-08-01T13:15:17;2.03;;;1.52;;
60975;SDS011;46849;48.154;17.042;2022-08-01T13:18:25;1.63;;;0.90;;
60975;SDS011;46849;48.154;17.042;2022-08-01T13:26:57;2.15;;;1.40;;
60975;SDS011;46849;48.154;17.042;2022-08-01T13:29:43;1.95;;;1.20;;
60975;SDS011;46849;48.154;17.042;2022-08-01T13:32:29;1.85;;;1.17;;
60975;SDS011;46849;48.154;17.042;2022-08-01T13:35:14;1.63;;;1.08;;
60975;SDS011;46849;48.154;17.042;2022-08-01T13:38:04;2.90;;;1.30;;
60975;SDS011;46849;48.154;17.042;2022-08-01T13:40:49;2.13;;;1.30;;
60975;SDS011;46849;48.154;17.042;2022-08-01T13:43:42;2.10;;;1.10;;
60975;SDS011;46849;48.154;17.042;2022-08-01T13:46:27;3.10;;;1.30;;
60975;SDS011;46849;48.154;17.042;2022-08-01T13:49:12;3.13;;;1.65;;
60975;SDS011;46849;48.154;17.042;2022-08-01T13:51:57;1.38;;;1.20;;
60975;SDS011;46849;48.154;17.042;2022-08-01T13:54:43;2.70;;;1.20;;
60975;SDS011;46849;48.154;17.042;2022-08-01T13:57:28;5.80;;;1.35;;
60975;SDS011;46849;48.154;17.042;2022-08-01T14:00:13;6.38;;;1.58;;
60975;SDS011;46849;48.154;17.042;2022-08-01T14:02:58;3.22;;;1.42;;
60975;SDS011;46849;48.154;17.042;2022-08-01T14:05:43;1.77;;;1.40;;
60975;SDS011;46849;48.154;17.042;2022-08-01T14:08:28;2.30;;;1.23;;
60975;SDS011;46849;48.154;17.042;2022-08-01T14:11:13;1.83;;;1.27;;
60975;SDS011;46849;48.154;17.042;2022-08-01T14:13:57;3.97;;;1.42;;
60975;SDS011;46849;48.154;17.042;2022-08-01T14:16:42;4.22;;;1.58;;
60975;SDS011;46849;48.154;17.042;2022-08-01T14:19:29;3.33;;;1.70;;
60975;SDS011;46849;48.154;17.042;2022-08-01T14:22:13;2.22;;;1.80;;
60975;SDS011;46849;48.154;17.042;2022-08-01T14:24:58;3.30;;;1.30;;
60975;SDS011;46849;48.154;17.042;2022-08-01T14:27:43;2.67;;;1.00;;
60975;SDS011;46849;48.154;17.042;2022-08-01T14:30:29;1.90;;;1.40;;
60975;SDS011;46849;48.154;17.042;2022-08-01T14:33:14;4.20;;;1.48;;
60975;SDS011;46849;48.154;17.042;2022-08-01T14:35:59;4.80;;;1.73;;
60975;SDS011;46849;48.154;17.042;2022-08-01T14:38:44;3.17;;;1.65;;
60975;SDS011;46849;48.154;17.042;2022-08-01T14:41:28;2.47;;;1.42;;
60975;SDS011;46849;48.154;17.042;2022-08-01T14:44:13;3.05;;;1.63;;
60975;SDS011;46849;48.154;17.042;2022-08-01T14:46:58;2.58;;;1.80;;
60975;SDS011;46849;48.154;17.042;2022-08-01T14:49:42;3.10;;;1.83;;
60975;SDS011;46849;48.154;17.042;2022-08-01T14:52:27;4.40;;;2.30;;
60975;SDS011;46849;48.154;17.042;2022-08-01T14:55:12;9.48;;;5.80;;
60975;SDS011;46849;48.154;17.042;2022-08-01T14:57:57;4.80;;;3.33;;
60975;SDS011;46849;48.154;17.042;2022-08-01T15:00:41;4.10;;;2.88;;
60975;SDS011;46849;48.154;17.042;2022-08-01T15:03:26;5.05;;;2.47;;
60975;SDS011;46849;48.154;17.042;2022-08-01T15:06:11;3.70;;;2.30;;
60975;SDS011;46849;48.154;17.042;2022-08-01T15:08:56;3.65;;;2.28;;
60975;SDS011;46849;48.154;17.042;2022-08-01T15:11:41;11.10;;;3.10;;
60975;SDS011;46849;48.154;17.042;2022-08-01T15:14:26;7.60;;;3.47;;
60975;SDS011;46849;48.154;17.042;2022-08-01T15:17:30;3.75;;;2.53;;
60975;SDS011;46849;48.154;17.042;2022-08-01T15:20:16;4.95;;;2.30;;
60975;SDS011;46849;48.154;17.042;2022-08-01T15:23:01;3.53;;;2.80;;
60975;SDS011;46849;48.154;17.042;2022-08-01T15:25:45;3.67;;;2.40;;
60975;SDS011;46849;48.154;17.042;2022-08-01T15:28:30;2.47;;;1.90;;
60975;SDS011;46849;48.154;17.042;2022-08-01T15:31:15;2.95;;;2.10;;
60975;SDS011;46849;48.154;17.042;2022-08-01T15:33:59;2.80;;;2.40;;
60975;SDS011;46849;48.154;17.042;2022-08-01T15:36:44;3.00;;;2.10;;
60975;SDS011;46849;48.154;17.042;2022-08-01T15:39:29;4.25;;;2.25;;
60975;SDS011;46849;48.154;17.042;2022-08-01T15:42:15;5.72;;;2.30;;
60975;SDS011;46849;48.154;17.042;2022-08-01T15:45:01;3.67;;;2.25;;
60975;SDS011;46849;48.154;17.042;2022-08-01T15:47:45;4.15;;;2.15;;
60975;SDS011;46849;48.154;17.042;2022-08-01T15:50:30;3.03;;;2.15;;
60975;SDS011;46849;48.154;17.042;2022-08-01T15:53:14;3.25;;;2.55;;
60975;SDS011;46849;48.154;17.042;2022-08-01T15:55:59;2.63;;;2.10;;
60975;SDS011;46849;48.154;17.042;2022-08-01T15:58:44;2.33;;;1.92;;
60975;SDS011;46849;48.154;17.042;2022-08-01T16:01:29;2.28;;;1.55;;
60975;SDS011;46849;48.154;17.042;2022-08-01T16:04:15;2.90;;;1.75;;
60975;SDS011;46849;48.154;17.042;2022-08-01T16:07:00;4.72;;;1.77;;
60975;SDS011;46849;48.154;17.042;2022-08-01T16:09:45;2.60;;;1.70;;
60975;SDS011;46849;48.154;17.042;2022-08-01T16:12:29;3.97;;;1.58;;
60975;SDS011;46849;48.154;17.042;2022-08-01T16:15:14;5.03;;;1.70;;
60975;SDS011;46849;48.154;17.042;2022-08-01T16:17:59;1.90;;;1.50;;
60975;SDS011;46849;48.154;17.042;2022-08-01T16:20:44;1.92;;;1.48;;
60975;SDS011;46849;48.154;17.042;2022-08-01T16:23:28;3.05;;;1.40;;
60975;SDS011;46849;48.154;17.042;2022-08-01T16:26:13;2.67;;;1.40;;
60975;SDS011;46849;48.154;17.042;2022-08-01T16:28:58;2.70;;;1.70;;
60975;SDS011;46849;48.154;17.042;2022-08-01T16:31:42;2.97;;;1.50;;
60975;SDS011;46849;48.154;17.042;2022-08-01T16:34:27;3.90;;;1.85;;
60975;SDS011;46849;48.154;17.042;2022-08-01T16:37:12;3.55;;;1.67;;
60975;SDS011;46849;48.154;17.042;2022-08-01T16:39:57;3.17;;;1.42;;
60975;SDS011;46849;48.154;17.042;2022-08-01T16:42:41;2.60;;;1.80;;
60975;SDS011;46849;48.154;17.042;2022-08-01T16:45:26;1.63;;;1.42;;
60975;SDS011;46849;48.154;17.042;2022-08-01T16:48:11;4.32;;;1.52;;
60975;SDS011;46849;48.154;17.042;2022-08-01T16:51:01;4.93;;;1.80;;
60975;SDS011;46849;48.154;17.042;2022-08-01T16:53:46;2.13;;;1.65;;
60975;SDS011;46849;48.154;17.042;2022-08-01T16:56:31;2.47;;;1.65;;
60975;SDS011;46849;48.154;17.042;2022-08-01T16:59:16;2.70;;;1.40;;
60975;SDS011;46849;48.154;17.042;2022-08-01T17:02:00;3.25;;;1.77;;